createdAt,value
2018-05-03T00:00:43.723Z,999.3
2018-05-03T00:01:43.386Z,999.32
2018-05-03T00:02:43.399Z,999.32
2018-05-03T00:03:43.425Z,999.34
2018-05-03T00:04:43.438Z,999.29
2018-05-03T00:05:43.464Z,999.27
2018-05-03T00:06:43.484Z,999.26
2018-05-03T00:07:43.507Z,999.29
2018-05-03T00:08:43.524Z,999.28
2018-05-03T00:09:43.535Z,999.28
2018-05-03T00:10:43.555Z,999.33
2018-05-03T00:11:43.574Z,999.24
2018-05-03T00:12:43.645Z,999.23
2018-05-03T00:13:43.611Z,999.19
2018-05-03T00:14:43.636Z,999.17
2018-05-03T00:15:43.652Z,999.15
2018-05-03T00:16:43.709Z,999.13
2018-05-03T00:17:43.691Z,999.12
2018-05-03T00:18:43.707Z,999.13
2018-05-03T00:19:43.728Z,999.09
2018-05-03T00:20:43.747Z,999.12
2018-05-03T00:21:43.770Z,999.09
2018-05-03T00:22:43.784Z,999.07
2018-05-03T00:23:43.805Z,999.03
2018-05-03T00:24:43.824Z,999.02
2018-05-03T00:25:43.841Z,999.02
2018-05-03T00:26:43.861Z,999.01
2018-05-03T00:27:43.883Z,999
2018-05-03T00:28:43.900Z,999.05
2018-05-03T00:29:43.918Z,999.04
2018-05-03T00:30:43.937Z,999.02
2018-05-03T00:31:43.957Z,998.98
2018-05-03T00:32:43.976Z,998.99
2018-05-03T00:33:43.996Z,998.96
2018-05-03T00:34:44.014Z,998.93
2018-05-03T00:35:44.033Z,998.9
2018-05-03T00:36:44.053Z,998.88
2018-05-03T00:37:44.071Z,998.87
2018-05-03T00:38:44.096Z,998.83
2018-05-03T00:39:44.109Z,998.8
2018-05-03T00:40:44.131Z,998.77
2018-05-03T00:41:44.147Z,998.73
2018-05-03T00:42:44.165Z,998.67
2018-05-03T00:43:44.186Z,998.67
2018-05-03T00:44:44.203Z,998.67
2018-05-03T00:45:44.223Z,998.66
2018-05-03T00:46:44.242Z,998.67
2018-05-03T00:47:44.261Z,998.63
2018-05-03T00:48:44.280Z,998.6
2018-05-03T00:49:44.302Z,998.61
2018-05-03T00:50:44.325Z,998.65
2018-05-03T00:51:44.337Z,998.66
2018-05-03T00:52:44.357Z,998.7
2018-05-03T00:53:44.375Z,998.71
2018-05-03T00:54:44.398Z,998.73
2018-05-03T00:55:44.413Z,998.77
2018-05-03T00:56:44.431Z,998.74
2018-05-03T00:57:44.450Z,998.82
2018-05-03T00:58:44.472Z,998.85
2018-05-03T00:59:44.489Z,998.86
2018-05-03T01:00:44.507Z,998.89
2018-05-03T01:01:44.529Z,998.87
2018-05-03T01:02:44.546Z,998.89
2018-05-03T01:03:44.564Z,998.82
2018-05-03T01:04:44.583Z,998.83
2018-05-03T01:05:44.602Z,998.79
2018-05-03T01:06:44.622Z,998.81
2018-05-03T01:07:44.639Z,998.79
2018-05-03T01:08:44.660Z,998.78
2018-05-03T01:09:44.679Z,998.76
2018-05-03T01:10:44.696Z,998.7
2018-05-03T01:11:44.719Z,998.67
2018-05-03T01:12:44.735Z,998.66
2018-05-03T01:13:44.760Z,998.63
2018-05-03T01:14:44.772Z,998.67
2018-05-03T01:15:44.793Z,998.71
2018-05-03T01:16:44.811Z,998.72
2018-05-03T01:17:44.833Z,998.79
2018-05-03T01:18:44.848Z,998.79
2018-05-03T01:19:44.867Z,998.78
2018-05-03T01:20:44.893Z,998.82
2018-05-03T01:21:44.905Z,998.83
2018-05-03T01:22:44.925Z,998.84
2018-05-03T01:23:44.944Z,998.82
2018-05-03T01:24:44.963Z,998.79
2018-05-03T01:25:44.983Z,998.78
2018-05-03T01:26:44.998Z,998.83
2018-05-03T01:27:45.018Z,998.81
2018-05-03T01:28:45.038Z,998.83
2018-05-03T01:29:45.081Z,998.81
2018-05-03T01:30:45.074Z,998.81
2018-05-03T01:31:45.094Z,998.84
2018-05-03T01:32:45.156Z,998.82
2018-05-03T01:33:45.137Z,998.85
2018-05-03T01:34:45.153Z,998.87
2018-05-03T01:35:45.168Z,998.85
2018-05-03T01:36:45.187Z,998.86
2018-05-03T01:37:45.209Z,998.91
2018-05-03T01:38:45.225Z,998.94
2018-05-03T01:39:45.244Z,999
2018-05-03T01:40:45.261Z,999.09
2018-05-03T01:41:45.281Z,999.16
2018-05-03T01:42:45.303Z,999.2
2018-05-03T01:43:45.326Z,999.22
2018-05-03T01:44:45.337Z,999.27
2018-05-03T01:45:45.361Z,999.3
2018-05-03T01:46:45.376Z,999.31
2018-05-03T01:47:45.393Z,999.38
2018-05-03T01:48:45.417Z,999.4
2018-05-03T01:49:45.436Z,999.47
2018-05-03T01:50:45.454Z,999.5
2018-05-03T01:51:45.473Z,999.5
2018-05-03T01:52:45.547Z,999.51
2018-05-03T01:53:45.512Z,999.51
2018-05-03T01:54:45.526Z,999.53
2018-05-03T01:55:45.549Z,999.54
2018-05-03T01:56:45.571Z,999.55
2018-05-03T01:57:45.581Z,999.6
2018-05-03T01:58:45.605Z,999.53
2018-05-03T01:59:45.627Z,999.53
2018-05-03T02:00:45.644Z,999.48
2018-05-03T02:01:45.657Z,999.41
2018-05-03T02:02:45.728Z,999.33
2018-05-03T02:03:45.700Z,999.3
2018-05-03T02:04:45.725Z,999.22
2018-05-03T02:05:45.735Z,999.15
2018-05-03T02:06:45.771Z,999.01
2018-05-03T02:07:45.820Z,998.95
2018-05-03T02:08:45.791Z,998.93
2018-05-03T02:09:45.811Z,998.82
2018-05-03T02:10:45.829Z,998.8
2018-05-03T02:11:45.844Z,998.74
2018-05-03T02:12:45.861Z,998.72
2018-05-03T02:13:45.884Z,998.67
2018-05-03T02:14:45.899Z,998.58
2018-05-03T02:15:45.924Z,998.46
2018-05-03T02:16:45.936Z,998.37
2018-05-03T02:17:45.954Z,998.26
2018-05-03T02:18:45.987Z,998.19
2018-05-03T02:19:45.991Z,998.21
2018-05-03T02:20:46.016Z,998.21
2018-05-03T02:21:46.031Z,998.24
2018-05-03T02:22:46.102Z,998.29
2018-05-03T02:23:46.066Z,998.26
2018-05-03T02:24:46.092Z,998.27
2018-05-03T02:25:46.103Z,998.27
2018-05-03T02:26:46.128Z,998.29
2018-05-03T02:27:46.195Z,998.28
2018-05-03T02:28:46.167Z,998.28
2018-05-03T02:29:46.183Z,998.24
2018-05-03T02:30:46.208Z,998.22
2018-05-03T02:31:46.220Z,998.22
2018-05-03T02:32:46.233Z,998.19
2018-05-03T02:33:46.259Z,998.2
2018-05-03T02:34:46.272Z,998.25
2018-05-03T02:35:46.296Z,998.25
2018-05-03T02:36:46.310Z,998.3
2018-05-03T02:37:46.332Z,998.4
2018-05-03T02:38:46.351Z,998.47
2018-05-03T02:39:46.370Z,998.52
2018-05-03T02:40:46.387Z,998.64
2018-05-03T02:41:46.411Z,998.72
2018-05-03T02:42:46.420Z,998.77
2018-05-03T02:43:46.440Z,998.94
2018-05-03T02:44:46.458Z,998.99
2018-05-03T02:45:46.479Z,999.13
2018-05-03T02:46:46.497Z,999.22
2018-05-03T02:47:46.520Z,999.19
2018-05-03T02:48:46.531Z,999.22
2018-05-03T02:49:46.549Z,999.2
2018-05-03T02:50:46.570Z,999.13
2018-05-03T02:51:46.587Z,999.13
2018-05-03T02:52:46.606Z,999.05
2018-05-03T02:53:46.628Z,998.99
2018-05-03T02:54:46.646Z,999.02
2018-05-03T02:55:46.662Z,999.01
2018-05-03T02:56:46.679Z,998.97
2018-05-03T02:57:46.700Z,998.93
2018-05-03T02:58:46.717Z,998.94
2018-05-03T02:59:46.752Z,998.92
2018-05-03T03:00:46.758Z,998.89
2018-05-03T03:01:46.775Z,998.92
2018-05-03T03:02:46.791Z,998.91
2018-05-03T03:03:46.812Z,998.94
2018-05-03T03:04:46.828Z,998.96
2018-05-03T03:05:46.851Z,998.99
2018-05-03T03:06:46.869Z,998.98
2018-05-03T03:07:46.883Z,999.04
2018-05-03T03:08:46.905Z,999.06
2018-05-03T03:09:46.919Z,999.11
2018-05-03T03:10:46.942Z,999.14
2018-05-03T03:11:46.959Z,999.17
2018-05-03T03:12:46.976Z,999.21
2018-05-03T03:13:46.993Z,999.25
2018-05-03T03:14:47.015Z,999.33
2018-05-03T03:15:47.028Z,999.33
2018-05-03T03:16:47.052Z,999.39
2018-05-03T03:17:47.072Z,999.43
2018-05-03T03:18:47.088Z,999.41
2018-05-03T03:19:47.107Z,999.38
2018-05-03T03:20:47.121Z,999.38
2018-05-03T03:21:47.145Z,999.32
2018-05-03T03:22:47.162Z,999.31
2018-05-03T03:23:47.182Z,999.28
2018-05-03T03:24:47.195Z,999.25
2018-05-03T03:25:47.217Z,999.27
2018-05-03T03:26:47.236Z,999.29
2018-05-03T03:27:47.257Z,999.29
2018-05-03T03:28:47.267Z,999.34
2018-05-03T03:29:47.291Z,999.32
2018-05-03T03:30:47.305Z,999.31
2018-05-03T03:31:47.325Z,999.38
2018-05-03T03:32:47.419Z,999.39
2018-05-03T03:33:47.366Z,999.44
2018-05-03T03:34:47.379Z,999.48
2018-05-03T03:35:47.397Z,999.52
2018-05-03T03:36:47.420Z,999.55
2018-05-03T03:37:47.433Z,999.57
2018-05-03T03:38:47.453Z,999.59
2018-05-03T03:39:47.470Z,999.59
2018-05-03T03:40:47.497Z,999.58
2018-05-03T03:41:47.512Z,999.59
2018-05-03T03:42:47.526Z,999.55
2018-05-03T03:43:47.547Z,999.58
2018-05-03T03:44:47.562Z,999.57
2018-05-03T03:45:47.589Z,999.59
2018-05-03T03:46:47.607Z,999.63
2018-05-03T03:47:47.616Z,999.65
2018-05-03T03:48:47.639Z,999.71
2018-05-03T03:49:47.652Z,999.7
2018-05-03T03:50:47.676Z,999.72
2018-05-03T03:51:47.689Z,999.72
2018-05-03T03:52:47.707Z,999.71
2018-05-03T03:53:47.728Z,999.7
2018-05-03T03:54:47.747Z,999.68
2018-05-03T03:55:47.768Z,999.65
2018-05-03T03:56:47.785Z,999.63
2018-05-03T03:57:47.806Z,999.6
2018-05-03T03:58:47.817Z,999.52
2018-05-03T03:59:47.842Z,999.47
2018-05-03T04:00:47.858Z,999.46
2018-05-03T04:01:47.877Z,999.49
2018-05-03T04:02:47.923Z,999.5
2018-05-03T04:03:47.914Z,999.57
2018-05-03T04:04:47.931Z,999.59
2018-05-03T04:05:47.945Z,999.58
2018-05-03T04:06:47.968Z,999.59
2018-05-03T04:07:47.985Z,999.59
2018-05-03T04:08:48.006Z,999.6
2018-05-03T04:09:48.021Z,999.61
2018-05-03T04:10:48.041Z,999.66
2018-05-03T04:11:48.060Z,999.62
2018-05-03T04:12:48.074Z,999.62
2018-05-03T04:13:48.096Z,999.61
2018-05-03T04:14:48.176Z,999.62
2018-05-03T04:15:48.132Z,999.63
2018-05-03T04:16:48.146Z,999.67
2018-05-03T04:17:48.168Z,999.7
2018-05-03T04:18:48.234Z,999.7
2018-05-03T04:19:48.204Z,999.72
2018-05-03T04:20:48.224Z,999.72
2018-05-03T04:21:48.236Z,999.69
2018-05-03T04:22:48.254Z,999.68
2018-05-03T04:23:48.273Z,999.67
2018-05-03T04:24:48.296Z,999.68
2018-05-03T04:25:48.311Z,999.69
2018-05-03T04:26:48.330Z,999.65
2018-05-03T04:27:48.351Z,999.65
2018-05-03T04:28:48.420Z,999.65
2018-05-03T04:29:48.383Z,999.65
2018-05-03T04:30:48.407Z,999.66
2018-05-03T04:31:48.418Z,999.65
2018-05-03T04:32:48.437Z,999.66
2018-05-03T04:33:48.457Z,999.64
2018-05-03T04:34:48.480Z,999.64
2018-05-03T04:35:48.492Z,999.64
2018-05-03T04:36:48.515Z,999.66
2018-05-03T04:37:48.528Z,999.66
2018-05-03T04:38:48.596Z,999.7
2018-05-03T04:39:48.570Z,999.69
2018-05-03T04:40:48.591Z,999.65
2018-05-03T04:41:48.608Z,999.71
2018-05-03T04:42:48.625Z,999.7
2018-05-03T04:43:48.642Z,999.72
2018-05-03T04:44:48.659Z,999.73
2018-05-03T04:45:48.679Z,999.76
2018-05-03T04:46:48.739Z,999.74
2018-05-03T04:47:48.712Z,999.78
2018-05-03T04:48:48.779Z,999.77
2018-05-03T04:49:48.748Z,999.79
2018-05-03T04:50:48.765Z,999.79
2018-05-03T04:51:48.784Z,999.8
2018-05-03T04:52:48.804Z,999.82
2018-05-03T04:53:48.875Z,999.85
2018-05-03T04:54:48.844Z,999.84
2018-05-03T04:55:48.857Z,999.89
2018-05-03T04:56:48.876Z,999.91
2018-05-03T04:57:48.898Z,999.91
2018-05-03T04:58:48.911Z,999.9
2018-05-03T04:59:48.934Z,999.86
2018-05-03T05:00:48.948Z,999.88
2018-05-03T05:01:48.971Z,999.86
2018-05-03T05:02:48.984Z,999.84
2018-05-03T05:03:49.009Z,999.83
2018-05-03T05:04:49.094Z,999.81
2018-05-03T05:05:49.043Z,999.83
2018-05-03T05:06:49.066Z,999.87
2018-05-03T05:07:49.092Z,999.89
2018-05-03T05:08:49.098Z,999.92
2018-05-03T05:09:49.116Z,999.94
2018-05-03T05:10:49.130Z,999.9
2018-05-03T05:11:49.154Z,999.9
2018-05-03T05:12:49.181Z,999.92
2018-05-03T05:13:49.189Z,999.89
2018-05-03T05:14:49.206Z,999.9
2018-05-03T05:15:49.226Z,999.92
2018-05-03T05:16:49.241Z,999.94
2018-05-03T05:17:49.324Z,999.89
2018-05-03T05:18:49.284Z,999.92
2018-05-03T05:19:49.299Z,999.99
2018-05-03T05:20:49.319Z,1000.01
2018-05-03T05:21:49.333Z,1000.01
2018-05-03T05:22:49.350Z,1000
2018-05-03T05:23:49.375Z,1000.03
2018-05-03T05:24:49.391Z,1000.04
2018-05-03T05:25:49.419Z,1000.09
2018-05-03T05:26:49.423Z,1000.1
2018-05-03T05:27:49.447Z,1000.08
2018-05-03T05:28:49.460Z,1000.15
2018-05-03T05:29:49.479Z,1000.16
2018-05-03T05:30:49.603Z,1000.17
2018-05-03T05:31:49.519Z,1000.21
2018-05-03T05:32:49.536Z,1000.23
2018-05-03T05:33:49.552Z,1000.28
2018-05-03T05:34:49.569Z,1000.26
2018-05-03T05:35:49.594Z,1000.28
2018-05-03T05:36:49.614Z,1000.31
2018-05-03T05:37:49.623Z,1000.34
2018-05-03T05:38:49.699Z,1000.34
2018-05-03T05:39:49.666Z,1000.35
2018-05-03T05:40:49.684Z,1000.35
2018-05-03T05:41:49.697Z,1000.34
2018-05-03T05:42:49.717Z,1000.38
2018-05-03T05:43:49.739Z,1000.34
2018-05-03T05:44:49.759Z,1000.33
2018-05-03T05:45:49.775Z,1000.34
2018-05-03T05:46:49.790Z,1000.32
2018-05-03T05:47:49.808Z,1000.3
2018-05-03T05:48:49.825Z,1000.3
2018-05-03T05:49:49.850Z,1000.27
2018-05-03T05:50:49.865Z,1000.29
2018-05-03T05:51:49.880Z,1000.26
2018-05-03T05:52:49.898Z,1000.24
2018-05-03T05:53:49.923Z,1000.28
2018-05-03T05:54:49.937Z,1000.31
2018-05-03T05:55:49.959Z,1000.36
2018-05-03T05:56:49.974Z,1000.36
2018-05-03T05:57:49.992Z,1000.4
2018-05-03T05:58:50.010Z,1000.4
2018-05-03T05:59:50.028Z,1000.4
2018-05-03T06:00:50.053Z,1000.41
2018-05-03T06:01:50.070Z,1000.4
2018-05-03T06:02:50.082Z,1000.44
2018-05-03T06:03:50.102Z,1000.44
2018-05-03T06:04:50.127Z,1000.48
2018-05-03T06:05:50.146Z,1000.47
2018-05-03T06:06:50.163Z,1000.47
2018-05-03T06:07:50.287Z,1000.47
2018-05-03T06:08:50.200Z,1000.47
2018-05-03T06:09:50.218Z,1000.43
2018-05-03T06:10:50.230Z,1000.43
2018-05-03T06:11:50.249Z,1000.44
2018-05-03T06:12:50.272Z,1000.45
2018-05-03T06:13:50.285Z,1000.45
2018-05-03T06:14:50.313Z,1000.47
2018-05-03T06:15:50.328Z,1000.47
2018-05-03T06:16:50.347Z,1000.44
2018-05-03T06:17:50.364Z,1000.47
2018-05-03T06:18:50.379Z,1000.44
2018-05-03T06:19:50.401Z,1000.5
2018-05-03T06:20:50.415Z,1000.49
2018-05-03T06:21:50.461Z,1000.5
2018-05-03T06:22:50.455Z,1000.51
2018-05-03T06:23:50.475Z,1000.54
2018-05-03T06:24:50.493Z,1000.58
2018-05-03T06:25:50.507Z,1000.59
2018-05-03T06:26:50.528Z,1000.61
2018-05-03T06:27:50.551Z,1000.58
2018-05-03T06:28:50.563Z,1000.64
2018-05-03T06:29:50.587Z,1000.64
2018-05-03T06:30:50.605Z,1000.65
2018-05-03T06:31:50.620Z,1000.66
2018-05-03T06:32:50.644Z,1000.61
2018-05-03T06:33:50.655Z,1000.66
2018-05-03T06:34:50.675Z,1000.7
2018-05-03T06:35:50.697Z,1000.67
2018-05-03T06:36:50.713Z,1000.67
2018-05-03T06:37:50.731Z,1000.72
2018-05-03T06:38:50.812Z,1000.74
2018-05-03T06:39:50.767Z,1000.78
2018-05-03T06:40:50.787Z,1000.8
2018-05-03T06:41:50.812Z,1000.79
2018-05-03T06:42:50.826Z,1000.77
2018-05-03T06:43:50.848Z,1000.78
2018-05-03T06:44:50.866Z,1000.78
2018-05-03T06:45:50.885Z,1000.78
2018-05-03T06:46:50.899Z,1000.82
2018-05-03T06:47:50.919Z,1000.84
2018-05-03T06:48:50.951Z,1000.81
2018-05-03T06:49:50.957Z,1000.88
2018-05-03T06:50:50.979Z,1000.83
2018-05-03T06:51:50.993Z,1000.84
2018-05-03T06:52:51.018Z,1000.85
2018-05-03T06:53:51.035Z,1000.84
2018-05-03T06:54:51.057Z,1000.87
2018-05-03T06:55:51.074Z,1000.88
2018-05-03T06:56:51.093Z,1000.89
2018-05-03T06:57:51.108Z,1000.91
2018-05-03T06:58:51.127Z,1000.96
2018-05-03T06:59:51.146Z,1000.95
2018-05-03T07:00:51.171Z,1000.98
2018-05-03T07:01:51.193Z,1001.04
2018-05-03T07:02:51.207Z,1001.08
2018-05-03T07:03:51.228Z,1001.1
2018-05-03T07:04:51.241Z,1001.14
2018-05-03T07:05:51.270Z,1001.19
2018-05-03T07:06:51.279Z,1001.21
2018-05-03T07:07:51.298Z,1001.23
2018-05-03T07:08:51.318Z,1001.23
2018-05-03T07:09:51.346Z,1001.28
2018-05-03T07:10:51.358Z,1001.34
2018-05-03T07:11:51.376Z,1001.33
2018-05-03T07:12:51.394Z,1001.3
2018-05-03T07:13:51.419Z,1001.32
2018-05-03T07:14:51.434Z,1001.31
2018-05-03T07:15:51.456Z,1001.29
2018-05-03T07:16:51.472Z,1001.29
2018-05-03T07:17:51.496Z,1001.27
2018-05-03T07:18:51.515Z,1001.24
2018-05-03T07:19:51.530Z,1001.32
2018-05-03T07:20:51.557Z,1001.29
2018-05-03T07:21:51.570Z,1001.33
2018-05-03T07:22:51.594Z,1001.37
2018-05-03T07:23:51.631Z,1001.34
2018-05-03T07:24:51.632Z,1001.4
2018-05-03T07:25:51.650Z,1001.33
2018-05-03T07:26:51.669Z,1001.37
2018-05-03T07:27:51.685Z,1001.36
2018-05-03T07:28:51.711Z,1001.38
2018-05-03T07:29:51.731Z,1001.4
2018-05-03T07:30:51.744Z,1001.43
2018-05-03T07:31:51.765Z,1001.42
2018-05-03T07:32:51.794Z,1001.43
2018-05-03T07:33:51.809Z,1001.48
2018-05-03T07:34:52.031Z,1001.45
2018-05-03T07:35:51.847Z,1001.46
2018-05-03T07:36:51.868Z,1001.46
2018-05-03T07:37:51.891Z,1001.51
2018-05-03T07:38:51.907Z,1001.44
2018-05-03T07:39:52.076Z,1001.47
2018-05-03T07:40:52.028Z,1001.43
2018-05-03T07:41:51.967Z,1001.45
2018-05-03T07:42:51.985Z,1001.42
2018-05-03T07:43:52.006Z,1001.47
2018-05-03T07:44:52.126Z,1001.46
2018-05-03T07:45:52.045Z,1001.43
2018-05-03T07:46:52.060Z,1001.46
2018-05-03T07:47:52.086Z,1001.43
2018-05-03T07:48:52.101Z,1001.5
2018-05-03T07:49:52.179Z,1001.5
2018-05-03T07:50:52.146Z,1001.5
2018-05-03T07:51:52.162Z,1001.52
2018-05-03T07:52:52.185Z,1001.55
2018-05-03T07:53:52.199Z,1001.57
2018-05-03T07:54:52.228Z,1001.64
2018-05-03T07:55:52.244Z,1001.6
2018-05-03T07:56:52.260Z,1001.63
2018-05-03T07:57:52.285Z,1001.64
2018-05-03T07:58:52.308Z,1001.66
2018-05-03T07:59:52.325Z,1001.76
2018-05-03T08:00:52.339Z,1001.79
2018-05-03T08:01:52.364Z,1001.79
2018-05-03T08:02:52.384Z,1001.85
2018-05-03T08:03:52.405Z,1001.88
2018-05-03T08:04:52.427Z,1001.94
2018-05-03T08:05:52.448Z,1001.94
2018-05-03T08:06:52.463Z,1002
2018-05-03T08:07:52.481Z,1001.97
2018-05-03T08:08:52.507Z,1002
2018-05-03T08:09:52.523Z,1001.99
2018-05-03T08:10:52.542Z,1001.98
2018-05-03T08:11:52.566Z,1001.99
2018-05-03T08:12:52.582Z,1002.02
2018-05-03T08:13:52.608Z,1002.02
2018-05-03T08:14:52.627Z,1002.07
2018-05-03T08:15:52.644Z,1002.04
2018-05-03T08:16:52.668Z,1002.09
2018-05-03T08:17:52.686Z,1002.12
2018-05-03T08:18:52.707Z,1002.11
2018-05-03T08:19:52.734Z,1002.18
2018-05-03T08:20:52.748Z,1002.18
2018-05-03T08:21:52.768Z,1002.19
2018-05-03T08:22:52.789Z,1002.22
2018-05-03T08:23:52.809Z,1002.26
2018-05-03T08:24:52.837Z,1002.26
2018-05-03T08:25:52.856Z,1002.28
2018-05-03T08:26:52.877Z,1002.3
2018-05-03T08:27:52.894Z,1002.32
2018-05-03T08:28:52.914Z,1002.34
2018-05-03T08:29:52.938Z,1002.32
2018-05-03T08:30:52.956Z,1002.39
2018-05-03T08:31:53.043Z,1002.35
2018-05-03T08:32:52.997Z,1002.37
2018-05-03T08:33:53.018Z,1002.39
2018-05-03T08:34:53.044Z,1002.4
2018-05-03T08:35:53.060Z,1002.46
2018-05-03T08:36:53.080Z,1002.47
2018-05-03T08:37:53.101Z,1002.5
2018-05-03T08:38:53.129Z,1002.56
2018-05-03T08:39:53.145Z,1002.59
2018-05-03T08:40:53.167Z,1002.59
2018-05-03T08:41:53.191Z,1002.59
2018-05-03T08:42:53.213Z,1002.59
2018-05-03T08:43:53.232Z,1002.57
2018-05-03T08:44:53.256Z,1002.58
2018-05-03T08:45:53.277Z,1002.55
2018-05-03T08:46:53.298Z,1002.57
2018-05-03T08:47:53.318Z,1002.6
2018-05-03T08:48:53.336Z,1002.63
2018-05-03T08:49:53.366Z,1002.69
2018-05-03T08:50:53.378Z,1002.69
2018-05-03T08:51:53.408Z,1002.72
2018-05-03T08:52:53.420Z,1002.73
2018-05-03T08:53:53.442Z,1002.69
2018-05-03T08:54:53.462Z,1002.71
2018-05-03T08:55:53.539Z,1002.66
2018-05-03T08:56:53.512Z,1002.74
2018-05-03T08:57:53.534Z,1002.69
2018-05-03T08:58:53.556Z,1002.71
2018-05-03T08:59:53.571Z,1002.75
2018-05-03T09:00:53.600Z,1002.79
2018-05-03T09:01:53.676Z,1002.81
2018-05-03T09:02:53.638Z,1002.82
2018-05-03T09:03:53.663Z,1002.8
2018-05-03T09:04:53.684Z,1002.87
2018-05-03T09:05:53.706Z,1002.88
2018-05-03T09:06:53.728Z,1002.88
2018-05-03T09:07:53.764Z,1002.89
2018-05-03T09:08:53.766Z,1002.98
2018-05-03T09:09:53.788Z,1002.93
2018-05-03T09:10:53.817Z,1002.94
2018-05-03T09:11:53.837Z,1002.87
2018-05-03T09:12:53.858Z,1002.89
2018-05-03T09:13:53.879Z,1002.98
2018-05-03T09:14:53.897Z,1003
2018-05-03T09:15:53.922Z,1002.98
2018-05-03T09:16:53.946Z,1003.02
2018-05-03T09:17:53.969Z,1003.06
2018-05-03T09:18:53.985Z,1003.09
2018-05-03T09:19:54.011Z,1003.12
2018-05-03T09:20:54.031Z,1003.13
2018-05-03T09:21:54.051Z,1003.14
2018-05-03T09:22:54.074Z,1003.19
2018-05-03T09:23:54.098Z,1003.16
2018-05-03T09:24:54.122Z,1003.19
2018-05-03T09:25:54.145Z,1003.26
2018-05-03T09:26:54.173Z,1003.25
2018-05-03T09:27:54.187Z,1003.32
2018-05-03T09:28:54.210Z,1003.23
2018-05-03T09:29:54.234Z,1003.33
2018-05-03T09:30:54.257Z,1003.28
2018-05-03T09:31:54.279Z,1003.32
2018-05-03T09:32:54.300Z,1003.34
2018-05-03T09:33:54.325Z,1003.35
2018-05-03T09:34:54.344Z,1003.3
2018-05-03T09:35:54.368Z,1003.29
2018-05-03T09:36:54.396Z,1003.33
2018-05-03T09:37:54.409Z,1003.29
2018-05-03T09:38:54.431Z,1003.29
2018-05-03T09:39:54.453Z,1003.28
2018-05-03T09:40:54.481Z,1003.3
2018-05-03T09:41:54.506Z,1003.3
2018-05-03T09:42:54.526Z,1003.27
2018-05-03T09:43:54.545Z,1003.28
2018-05-03T09:44:54.568Z,1003.3
2018-05-03T09:45:54.591Z,1003.34
2018-05-03T09:46:54.617Z,1003.32
2018-05-03T09:47:54.641Z,1003.35
2018-05-03T09:48:54.661Z,1003.38
2018-05-03T09:49:54.687Z,1003.42
2018-05-03T09:50:54.708Z,1003.43
2018-05-03T09:51:54.730Z,1003.45
2018-05-03T09:52:54.758Z,1003.46
2018-05-03T09:53:54.777Z,1003.45
2018-05-03T09:54:54.805Z,1003.47
2018-05-03T09:55:54.831Z,1003.49
2018-05-03T09:56:54.848Z,1003.48
2018-05-03T09:57:54.877Z,1003.51
2018-05-03T09:58:54.894Z,1003.51
2018-05-03T09:59:54.923Z,1003.46
2018-05-03T10:00:54.947Z,1003.47
2018-05-03T10:01:54.971Z,1003.56
2018-05-03T10:02:54.988Z,1003.58
2018-05-03T10:03:55.013Z,1003.58
2018-05-03T10:04:55.151Z,1003.58
2018-05-03T10:05:55.066Z,1003.55
2018-05-03T10:06:55.095Z,1003.47
2018-05-03T10:07:55.111Z,1003.54
2018-05-03T10:08:55.138Z,1003.54
2018-05-03T10:09:55.160Z,1003.57
2018-05-03T10:10:55.186Z,1003.61
2018-05-03T10:11:55.215Z,1003.59
2018-05-03T10:12:55.233Z,1003.58
2018-05-03T10:13:55.251Z,1003.6
2018-05-03T10:14:55.281Z,1003.59
2018-05-03T10:15:55.300Z,1003.56
2018-05-03T10:16:55.326Z,1003.54
2018-05-03T10:17:55.357Z,1003.61
2018-05-03T10:18:55.395Z,1003.62
2018-05-03T10:19:55.397Z,1003.65
2018-05-03T10:20:55.426Z,1003.65
2018-05-03T10:21:55.446Z,1003.63
2018-05-03T10:22:55.472Z,1003.68
2018-05-03T10:23:55.501Z,1003.72
2018-05-03T10:24:55.520Z,1003.68
2018-05-03T10:25:55.542Z,1003.65
2018-05-03T10:26:55.574Z,1003.57
2018-05-03T10:27:55.594Z,1003.61
2018-05-03T10:28:55.618Z,1003.66
2018-05-03T10:29:55.720Z,1003.64
2018-05-03T10:30:55.668Z,1003.56
2018-05-03T10:31:55.697Z,1003.66
2018-05-03T10:32:55.716Z,1003.65
2018-05-03T10:33:55.742Z,1003.67
2018-05-03T10:34:55.770Z,1003.7
2018-05-03T10:35:55.892Z,1003.66
2018-05-03T10:36:55.821Z,1003.63
2018-05-03T10:37:55.841Z,1003.68
2018-05-03T10:38:55.865Z,1003.72
2018-05-03T10:39:55.893Z,1003.66
2018-05-03T10:40:55.915Z,1003.69
2018-05-03T10:41:55.954Z,1003.65
2018-05-03T10:42:55.966Z,1003.61
2018-05-03T10:43:55.995Z,1003.64
2018-05-03T10:44:56.016Z,1003.66
2018-05-03T10:45:56.040Z,1003.71
2018-05-03T10:46:56.067Z,1003.78
2018-05-03T10:47:56.105Z,1003.8
2018-05-03T10:48:56.124Z,1003.81
2018-05-03T10:49:56.147Z,1003.76
2018-05-03T10:50:56.169Z,1003.79
2018-05-03T10:51:56.199Z,1003.81
2018-05-03T10:52:56.219Z,1003.82
2018-05-03T10:53:56.249Z,1003.83
2018-05-03T10:54:56.275Z,1003.84
2018-05-03T10:55:56.299Z,1003.84
2018-05-03T10:56:56.328Z,1003.85
2018-05-03T10:57:56.345Z,1003.83
2018-05-03T10:58:56.371Z,1003.94
2018-05-03T10:59:56.398Z,1003.89
2018-05-03T11:00:56.428Z,1003.87
2018-05-03T11:01:56.454Z,1003.89
2018-05-03T11:02:56.478Z,1003.89
2018-05-03T11:03:56.499Z,1003.87
2018-05-03T11:04:56.529Z,1003.92
2018-05-03T11:05:56.550Z,1003.93
2018-05-03T11:06:56.581Z,1003.92
2018-05-03T11:07:56.607Z,1003.99
2018-05-03T11:08:56.627Z,1003.95
2018-05-03T11:09:56.658Z,1003.9
2018-05-03T11:10:56.686Z,1003.88
2018-05-03T11:11:56.705Z,1003.82
2018-05-03T11:12:56.736Z,1003.87
2018-05-03T11:13:56.757Z,1003.82
2018-05-03T11:14:56.784Z,1003.83
2018-05-03T11:15:56.822Z,1003.82
2018-05-03T11:16:56.836Z,1003.77
2018-05-03T11:17:56.866Z,1003.8
2018-05-03T11:18:56.895Z,1003.84
2018-05-03T11:19:56.914Z,1003.83
2018-05-03T11:20:56.941Z,1003.85
2018-05-03T11:21:56.967Z,1003.81
2018-05-03T11:22:56.992Z,1003.77
2018-05-03T11:23:57.018Z,1003.82
2018-05-03T11:24:57.045Z,1003.8
2018-05-03T11:25:57.153Z,1003.83
2018-05-03T11:26:57.105Z,1003.79
2018-05-03T11:27:57.129Z,1003.83
2018-05-03T11:28:57.162Z,1003.83
2018-05-03T11:29:57.183Z,1003.82
2018-05-03T11:30:57.211Z,1003.85
2018-05-03T11:31:57.231Z,1003.86
2018-05-03T11:32:57.261Z,1003.89
2018-05-03T11:33:57.285Z,1003.87
2018-05-03T11:34:57.311Z,1003.84
2018-05-03T11:35:57.338Z,1003.88
2018-05-03T11:36:57.440Z,1003.83
2018-05-03T11:37:57.392Z,1003.85
2018-05-03T11:38:57.422Z,1003.89
2018-05-03T11:39:57.449Z,1003.88
2018-05-03T11:40:57.475Z,1003.89
2018-05-03T11:41:57.503Z,1003.92
2018-05-03T11:42:57.524Z,1003.92
2018-05-03T11:43:57.560Z,1003.92
2018-05-03T11:44:57.584Z,1003.86
2018-05-03T11:45:57.606Z,1003.9
2018-05-03T11:46:57.632Z,1003.89
2018-05-03T11:47:57.664Z,1003.84
2018-05-03T11:48:57.695Z,1003.87
2018-05-03T11:49:57.718Z,1003.85
2018-05-03T11:50:57.741Z,1003.85
2018-05-03T11:51:57.771Z,1003.89
2018-05-03T11:52:57.795Z,1003.88
2018-05-03T11:53:57.823Z,1003.85
2018-05-03T11:54:57.855Z,1003.91
2018-05-03T11:55:57.888Z,1003.89
2018-05-03T11:56:57.904Z,1003.9
2018-05-03T11:57:57.935Z,1003.91
2018-05-03T11:58:57.962Z,1003.85
2018-05-03T11:59:57.987Z,1003.84
2018-05-03T12:00:58.017Z,1003.85
2018-05-03T12:01:58.046Z,1003.85
2018-05-03T12:02:58.069Z,1003.91
2018-05-03T12:03:58.100Z,1003.85
2018-05-03T12:04:58.121Z,1003.86
2018-05-03T12:05:58.188Z,1003.84
2018-05-03T12:06:58.178Z,1003.9
2018-05-03T12:07:58.208Z,1003.85
2018-05-03T12:08:58.237Z,1003.87
2018-05-03T12:09:58.265Z,1003.84
2018-05-03T12:10:58.292Z,1003.85
2018-05-03T12:11:58.316Z,1003.85
2018-05-03T12:12:58.344Z,1003.9
2018-05-03T12:13:58.375Z,1003.91
2018-05-03T12:14:58.404Z,1003.91
2018-05-03T12:15:58.429Z,1003.89
2018-05-03T12:16:58.455Z,1003.86
2018-05-03T12:17:58.482Z,1003.86
2018-05-03T12:18:58.514Z,1003.84